Time;durP1;ratioP1;P1;durP2;ratioP2;P2;SDS_P1;SDS_P2;PMS_P1;PMS_P2;Temp;Humidity;BMP_temperature;BMP_pressure;BME280_temperature;BME280_humidity;BME280_pressure;Samples;Min_cycle;Max_cycle;Signal;HPM_P1;HPM_P2
2023/05/31 00:01:59;;;;;;;3.45;2.60;;;;;;;16.71;89.56;94893.78;5052016;28;20167;-77
2023/05/31 00:04:25;;;;;;;4.15;2.92;;;;;;;16.84;89.21;94896.91;5052845;28;20194;-77
2023/05/31 00:06:50;;;;;;;3.58;2.90;;;;;;;16.91;88.95;94894.84;5069306;28;20174;-77
2023/05/31 00:09:16;;;;;;;6.72;2.95;;;;;;;16.92;88.66;94893.78;5056238;28;20186;-77
2023/05/31 00:11:41;;;;;;;4.82;3.03;;;;;;;17.00;88.62;94897.84;5064758;28;20167;-77
2023/05/31 00:14:07;;;;;;;4.05;3.58;;;;;;;17.02;88.47;94898.44;5064568;28;20192;-77
2023/05/31 00:16:32;;;;;;;7.10;4.60;;;;;;;16.93;88.55;94882.09;5064342;28;20268;-77
2023/05/31 00:18:58;;;;;;;8.00;5.07;;;;;;;17.08;88.49;94900.06;5064846;28;20174;-77
2023/05/31 00:21:25;;;;;;;7.90;6.95;;;;;;;17.10;88.25;94902.50;5056119;28;20269;-77
2023/05/31 00:23:50;;;;;;;9.05;6.00;;;;;;;17.10;88.34;94897.16;5066898;28;20182;-77
2023/05/31 00:26:15;;;;;;;9.25;6.13;;;;;;;17.09;88.49;94890.25;5053298;28;20183;-77
2023/05/31 00:28:41;;;;;;;14.55;7.07;;;;;;;17.09;88.39;94896.38;5064301;28;20608;-77
2023/05/31 00:31:06;;;;;;;8.93;5.75;;;;;;;17.09;88.56;94893.72;5072705;28;20182;-77
2023/05/31 00:33:31;;;;;;;8.95;5.53;;;;;;;17.09;88.52;94899.03;5064341;28;20646;-77
2023/05/31 00:35:57;;;;;;;8.73;4.97;;;;;;;17.06;88.62;94888.88;5072633;28;20306;-77
2023/05/31 00:38:22;;;;;;;9.20;5.07;;;;;;;17.07;88.95;94889.69;5064030;28;20229;-77
2023/05/31 00:40:48;;;;;;;9.85;4.40;;;;;;;17.05;88.88;94892.59;5061231;28;20175;-77
2023/05/31 00:43:13;;;;;;;6.75;3.85;;;;;;;17.06;89.15;94894.19;5059691;28;20708;-77
2023/05/31 00:45:38;;;;;;;5.28;4.40;;;;;;;17.01;89.51;94898.66;5069609;28;20574;-77
2023/05/31 00:48:04;;;;;;;17.33;5.10;;;;;;;17.02;89.82;94893.09;5065642;28;20572;-77
2023/05/31 00:50:30;;;;;;;11.35;4.80;;;;;;;17.00;90.01;94905.03;5064199;28;20240;-77
2023/05/31 00:52:57;;;;;;;11.82;4.97;;;;;;;17.00;90.20;94899.72;5072451;28;20182;-77
2023/05/31 00:55:23;;;;;;;7.97;4.43;;;;;;;16.94;90.19;94889.03;5066051;28;20203;-77
2023/05/31 00:57:51;;;;;;;7.63;4.95;;;;;;;16.97;90.60;94901.81;5050789;28;20472;-77
2023/05/31 01:00:17;;;;;;;5.75;4.25;;;;;;;16.97;90.57;94911.66;5064853;28;20413;-77
2023/05/31 01:02:43;;;;;;;7.43;4.28;;;;;;;17.02;90.33;94908.25;5055576;28;20178;-77
2023/05/31 01:05:09;;;;;;;9.07;4.40;;;;;;;17.03;89.98;94900.03;5060491;28;20166;-77
2023/05/31 01:07:35;;;;;;;5.88;4.20;;;;;;;16.91;90.54;94905.47;5067560;28;20663;-77
2023/05/31 01:10:06;;;;;;;5.38;3.92;;;;;;;16.90;90.69;94906.53;5061859;28;20183;-77
2023/05/31 01:15:45;;;;;;;5.50;4.20;;;;;;;16.93;90.95;94894.59;5046175;28;20289;-78
2023/05/31 01:18:32;;;;;;;10.05;5.10;;;;;;;16.98;90.64;94902.63;5071017;28;20246;-78
2023/05/31 01:21:01;;;;;;;10.43;5.38;;;;;;;16.95;90.60;94893.28;5063842;28;20216;-78
2023/05/31 01:24:00;;;;;;;10.30;5.43;;;;;;;16.97;91.21;94899.16;5039606;28;20170;-78
2023/05/31 01:26:45;;;;;;;12.55;5.63;;;;;;;16.95;91.10;94901.25;5052237;28;20630;-78
2023/05/31 01:29:13;;;;;;;9.25;5.65;;;;;;;16.95;91.38;94898.59;5060666;28;20178;-78
2023/05/31 01:31:41;;;;;;;8.32;5.22;;;;;;;16.82;91.68;94871.59;5060708;28;20241;-78
2023/05/31 01:34:08;;;;;;;10.40;5.65;;;;;;;16.97;91.49;94899.16;5060102;28;20174;-78
2023/05/31 01:36:33;;;;;;;9.25;5.60;;;;;;;16.77;91.43;94869.69;5059475;28;20692;-78
2023/05/31 01:39:01;;;;;;;9.48;5.93;;;;;;;16.93;91.76;94895.41;5052274;28;20187;-78
2023/05/31 01:41:28;;;;;;;7.03;4.93;;;;;;;16.95;91.55;94900.47;5064672;28;20653;-78
2023/05/31 01:43:54;;;;;;;11.63;5.85;;;;;;;16.85;91.28;94876.44;5063588;28;20707;-79
2023/05/31 01:46:20;;;;;;;9.70;5.88;;;;;;;16.99;91.39;94893.59;5068036;28;20169;-78
2023/05/31 01:48:47;;;;;;;6.47;4.45;;;;;;;16.83;91.42;94871.34;5067315;28;20182;-78
2023/05/31 01:51:14;;;;;;;7.82;5.13;;;;;;;16.96;91.68;94891.41;5054590;28;20201;-78
2023/05/31 01:53:41;;;;;;;9.07;4.53;;;;;;;16.98;91.66;94898.09;5061424;28;20167;-78
2023/05/31 01:56:08;;;;;;;7.50;4.80;;;;;;;16.97;91.96;94904.47;5051921;28;20194;-78
2023/05/31 01:58:38;;;;;;;5.55;4.45;;;;;;;16.93;91.97;94899.91;5051614;28;20171;-78
2023/05/31 02:01:03;;;;;;;6.30;4.80;;;;;;;16.92;92.76;94900.97;5062873;28;20182;-79
2023/05/31 02:03:29;;;;;;;8.35;5.45;;;;;;;16.94;92.83;94894.34;5061764;28;20174;-78
2023/05/31 02:05:58;;;;;;;8.45;5.38;;;;;;;16.86;92.50;94878.03;5066456;28;20554;-78
2023/05/31 02:08:25;;;;;;;8.65;5.13;;;;;;;16.78;92.39;94881.09;5060361;28;20174;-78
2023/05/31 02:10:51;;;;;;;9.20;5.07;;;;;;;16.94;91.84;94909.50;5056488;28;20183;-78
2023/05/31 02:13:18;;;;;;;8.68;4.57;;;;;;;16.83;91.90;94895.28;5067548;28;20670;-78
2023/05/31 02:15:44;;;;;;;8.73;5.22;;;;;;;16.80;92.06;94894.97;5068777;28;20704;-79
2023/05/31 02:18:09;;;;;;;7.15;4.57;;;;;;;16.87;92.29;94914.19;5060051;28;20218;-79
2023/05/31 02:20:34;;;;;;;4.70;3.92;;;;;;;16.85;92.23;94906.47;5068794;28;20618;-78
2023/05/31 02:23:00;;;;;;;6.30;4.22;;;;;;;16.80;92.18;94917.03;5063467;28;20653;-78
2023/05/31 02:25:25;;;;;;;13.93;5.05;;;;;;;16.70;92.50;94894.84;5058972;28;20170;-78
2023/05/31 02:27:51;;;;;;;8.02;4.38;;;;;;;16.65;92.70;94892.13;5070706;28;20174;-78
2023/05/31 02:30:16;;;;;;;8.68;4.72;;;;;;;16.76;92.75;94912.47;5061188;28;20170;-77
2023/05/31 02:32:42;;;;;;;5.47;3.83;;;;;;;16.77;92.34;94904.25;5066790;28;20626;-77
2023/05/31 02:35:10;;;;;;;7.22;4.25;;;;;;;16.78;92.56;94911.16;5070437;28;20222;-77
2023/05/31 02:37:37;;;;;;;5.50;3.90;;;;;;;16.78;92.13;94915.66;5056298;28;20915;-77
2023/05/31 02:40:08;;;;;;;4.63;3.88;;;;;;;16.76;92.19;94907.97;5060407;28;20202;-77
2023/05/31 02:42:40;;;;;;;5.22;4.47;;;;;;;16.77;92.39;94911.44;5066407;28;20271;-77
2023/05/31 02:45:06;;;;;;;5.93;4.63;;;;;;;16.77;92.46;94914.91;5069627;28;20171;-78
2023/05/31 02:47:32;;;;;;;6.32;4.28;;;;;;;16.75;92.61;94909.00;5063916;28;20200;-77
2023/05/31 02:49:58;;;;;;;5.75;3.92;;;;;;;16.73;92.80;94905.78;5066369;28;20644;-77
2023/05/31 02:52:24;;;;;;;5.90;4.45;;;;;;;16.79;92.48;94910.09;5067745;28;20178;-77
2023/05/31 02:54:50;;;;;;;5.57;4.10;;;;;;;16.65;92.52;94886.81;5064727;28;20566;-77
2023/05/31 02:57:15;;;;;;;7.78;4.47;;;;;;;16.73;92.43;94908.44;5074388;28;20175;-77
2023/05/31 02:59:43;;;;;;;8.23;4.00;;;;;;;16.74;92.75;94904.75;5061470;28;20178;-77
2023/05/31 03:02:09;;;;;;;6.97;4.18;;;;;;;16.67;92.30;94903.31;5056395;28;20175;-77
2023/05/31 03:04:35;;;;;;;5.45;4.00;;;;;;;16.70;92.22;94908.94;5063038;28;20233;-77
2023/05/31 03:07:00;;;;;;;6.70;4.53;;;;;;;16.68;92.97;94910.25;5059862;28;20182;-77
2023/05/31 03:09:25;;;;;;;9.98;4.60;;;;;;;16.69;93.04;94919.84;5065808;28;20171;-78
2023/05/31 03:11:51;;;;;;;6.43;4.50;;;;;;;16.66;93.18;94915.00;5060596;28;20959;-77
2023/05/31 03:14:16;;;;;;;10.18;5.75;;;;;;;16.61;93.04;94902.44;5073733;28;20249;-77
2023/05/31 03:16:43;;;;;;;10.40;4.78;;;;;;;16.68;93.05;94920.88;5066445;28;20227;-77
2023/05/31 03:19:08;;;;;;;6.25;4.75;;;;;;;16.66;93.02;94915.81;5069011;28;20181;-77
2023/05/31 03:21:33;;;;;;;8.00;5.28;;;;;;;16.70;92.98;94911.59;5057009;28;20183;-77
2023/05/31 03:23:59;;;;;;;8.88;4.10;;;;;;;16.73;93.05;94921.75;5059477;28;20244;-77
2023/05/31 03:26:25;;;;;;;6.97;4.68;;;;;;;16.60;92.98;94895.50;5063063;28;20182;-77
2023/05/31 03:28:51;;;;;;;8.32;5.63;;;;;;;16.74;92.89;94926.00;5065386;28;20228;-77
2023/05/31 03:31:18;;;;;;;12.57;5.20;;;;;;;16.67;92.94;94917.41;5064126;28;20791;-77
2023/05/31 03:33:44;;;;;;;19.25;8.65;;;;;;;16.74;93.12;94928.66;5062375;28;20666;-81
2023/05/31 03:36:10;;;;;;;25.05;14.32;;;;;;;16.76;93.29;94926.56;5070147;28;20202;-80
2023/05/31 03:38:35;;;;;;;8.68;6.18;;;;;;;16.79;93.35;94927.91;5071563;28;20198;-79
2023/05/31 03:41:00;;;;;;;7.30;4.45;;;;;;;16.77;93.02;94917.56;5057658;28;20682;-79
2023/05/31 03:43:26;;;;;;;6.95;4.22;;;;;;;16.84;93.05;94928.81;5064018;28;20170;-79
2023/05/31 03:45:51;;;;;;;6.35;4.65;;;;;;;16.82;93.29;94924.78;5067420;28;20175;-79
2023/05/31 03:48:16;;;;;;;9.23;4.67;;;;;;;16.89;93.32;94928.03;5062248;28;20411;-79
2023/05/31 03:50:44;;;;;;;9.30;5.38;;;;;;;16.92;93.02;94933.69;5064731;28;20290;-78
2023/05/31 03:53:09;;;;;;;8.32;4.60;;;;;;;16.93;92.84;94935.28;5059653;28;20178;-78
2023/05/31 03:55:36;;;;;;;11.32;5.03;;;;;;;16.97;92.58;94947.03;5062154;28;20565;-78
2023/05/31 03:58:02;;;;;;;6.80;4.45;;;;;;;16.87;92.17;94925.63;5062085;28;20175;-78
2023/05/31 04:00:28;;;;;;;8.88;5.03;;;;;;;16.97;92.27;94939.03;5060396;28;20171;-79
2023/05/31 04:02:54;;;;;;;8.75;4.65;;;;;;;16.98;92.51;94945.97;5066950;28;20725;-80
2023/05/31 04:05:19;;;;;;;10.85;5.13;;;;;;;17.01;92.79;94939.38;5063371;28;20254;-79
2023/05/31 04:07:45;;;;;;;7.75;4.90;;;;;;;17.05;92.86;94939.66;5064494;28;20178;-81
2023/05/31 04:10:10;;;;;;;9.75;5.28;;;;;;;16.83;93.26;94918.41;5061543;28;20183;-81
2023/05/31 04:12:36;;;;;;;7.28;5.38;;;;;;;16.79;93.39;94917.28;5065865;28;20249;-80
2023/05/31 04:15:01;;;;;;;14.90;5.53;;;;;;;16.84;93.57;94947.41;5061654;28;20194;-80
2023/05/31 04:17:26;;;;;;;10.40;5.75;;;;;;;16.76;94.08;94949.69;5060187;28;20592;-80
2023/05/31 04:19:52;;;;;;;13.00;6.57;;;;;;;16.84;93.74;94943.94;5061794;28;20226;-79
2023/05/31 04:22:17;;;;;;;9.73;5.15;;;;;;;16.93;93.62;94945.94;5063213;28;20171;-80
2023/05/31 04:24:43;;;;;;;8.98;5.40;;;;;;;16.98;93.34;94948.63;5064699;28;20175;-81
2023/05/31 04:27:08;;;;;;;13.50;4.72;;;;;;;17.09;93.09;94948.75;5064300;28;20174;-79
2023/05/31 04:29:34;;;;;;;13.75;5.95;;;;;;;17.18;92.94;94963.22;5063755;28;20693;-79
2023/05/31 04:31:59;;;;;;;10.90;5.45;;;;;;;17.25;92.86;94961.19;5063819;28;20174;-79
2023/05/31 04:34:26;;;;;;;19.38;5.43;;;;;;;17.32;93.11;94962.59;5062507;28;20218;-79
2023/05/31 04:36:52;;;;;;;8.13;5.60;;;;;;;17.40;92.43;94965.84;5062607;28;20260;-78
2023/05/31 04:39:22;;;;;;;14.73;6.35;;;;;;;17.35;92.67;94966.63;5062992;28;20629;-79
2023/05/31 04:41:48;;;;;;;10.30;5.57;;;;;;;17.43;92.58;94973.34;5059602;28;20183;-78
2023/05/31 04:44:13;;;;;;;14.73;6.63;;;;;;;17.50;92.28;94969.44;5066895;28;20174;-78
2023/05/31 04:46:42;;;;;;;25.20;6.65;;;;;;;17.61;91.52;94975.66;5063601;28;20176;-76
2023/05/31 04:49:07;;;;;;;15.75;6.10;;;;;;;17.71;91.92;94973.94;5050746;28;20727;-76
2023/05/31 04:51:33;;;;;;;16.23;6.30;;;;;;;17.84;91.11;94974.56;5068346;28;20182;-77
2023/05/31 04:53:59;;;;;;;9.10;5.20;;;;;;;18.00;89.73;94978.97;5067765;28;20190;-78
2023/05/31 04:56:25;;;;;;;9.52;6.28;;;;;;;18.12;89.08;94978.81;5067826;28;20264;-78
2023/05/31 04:58:51;;;;;;;20.92;7.03;;;;;;;18.28;88.76;94984.00;5064104;28;20656;-77
2023/05/31 05:01:17;;;;;;;9.45;5.78;;;;;;;18.41;88.46;94980.13;5066917;28;20206;-76
2023/05/31 05:03:43;;;;;;;13.27;6.25;;;;;;;18.54;87.24;94981.50;5061209;28;20175;-78
2023/05/31 05:06:13;;;;;;;11.23;6.07;;;;;;;18.39;86.14;94948.38;5063813;28;20262;-79
2023/05/31 05:08:40;;;;;;;12.85;5.90;;;;;;;18.76;85.92;94990.22;5064690;28;20652;-78
2023/05/31 05:11:06;;;;;;;12.50;6.45;;;;;;;18.71;85.53;94972.31;5055278;28;20175;-80
2023/05/31 05:13:31;;;;;;;8.23;5.50;;;;;;;18.91;84.46;94998.31;5072467;28;20176;-79
2023/05/31 05:15:56;;;;;;;13.35;5.18;;;;;;;18.73;84.21;94966.72;5062874;28;20194;-80
2023/05/31 05:18:22;;;;;;;18.83;6.28;;;;;;;18.76;83.66;94996.38;5060526;28;20214;-80
2023/05/31 05:20:47;;;;;;;13.85;6.45;;;;;;;18.69;84.29;95003.78;5052766;28;20198;-80
2023/05/31 05:23:12;;;;;;;14.75;6.97;;;;;;;18.60;84.61;94983.19;5061068;28;20195;-80
2023/05/31 05:25:38;;;;;;;22.25;6.80;;;;;;;18.73;83.24;95004.88;5058951;28;20611;-79
2023/05/31 05:28:03;;;;;;;8.43;5.25;;;;;;;18.70;83.51;95004.56;5061126;28;20174;-80
2023/05/31 05:30:29;;;;;;;9.32;6.00;;;;;;;18.65;82.00;95018.69;5063887;28;20577;-80
2023/05/31 05:32:54;;;;;;;9.77;5.80;;;;;;;18.62;82.65;95008.53;5065367;28;20167;-80
2023/05/31 05:35:20;;;;;;;10.27;5.15;;;;;;;18.54;82.67;95002.84;5054928;28;20226;-80
2023/05/31 05:37:45;;;;;;;9.10;5.15;;;;;;;18.68;82.28;95017.38;5052323;28;20179;-81
2023/05/31 05:40:11;;;;;;;8.93;6.50;;;;;;;18.69;83.86;95014.44;5052496;28;20155;-80
2023/05/31 05:42:37;;;;;;;15.15;5.95;;;;;;;18.66;82.61;95006.97;5052048;28;20538;-81
2023/05/31 05:45:09;;;;;;;10.68;6.35;;;;;;;18.50;82.40;95005.25;5051985;28;20239;-80
2023/05/31 05:47:35;;;;;;;9.55;6.13;;;;;;;18.54;83.62;95024.19;5053229;28;20183;-80
2023/05/31 05:50:01;;;;;;;9.02;6.30;;;;;;;18.60;83.87;95026.66;5060237;28;20175;-79
2023/05/31 05:52:26;;;;;;;11.98;6.55;;;;;;;18.60;82.92;95028.50;5060829;28;20190;-78
2023/05/31 05:54:52;;;;;;;11.80;7.32;;;;;;;18.61;83.95;95014.91;5067947;28;20175;-78
2023/05/31 05:57:18;;;;;;;14.25;6.68;;;;;;;18.74;83.43;95019.03;5059786;28;20305;-79
2023/05/31 05:59:44;;;;;;;11.32;6.95;;;;;;;18.68;84.27;95018.16;5060186;28;20171;-79
2023/05/31 06:02:10;;;;;;;10.60;7.18;;;;;;;18.85;83.45;95015.38;5068609;28;20642;-79
2023/05/31 06:04:36;;;;;;;8.63;6.35;;;;;;;18.78;82.95;95004.09;5067291;28;20206;-79
2023/05/31 06:07:01;;;;;;;10.27;6.47;;;;;;;19.02;82.35;95028.53;5066254;28;20649;-79
2023/05/31 06:09:28;;;;;;;12.80;6.80;;;;;;;19.12;82.18;95026.69;5067710;28;20183;-79
2023/05/31 06:11:54;;;;;;;10.77;6.63;;;;;;;19.29;81.91;95026.50;5067395;28;20182;-79
2023/05/31 06:14:19;;;;;;;11.43;7.57;;;;;;;19.44;81.66;95025.78;5067451;28;20173;-80
2023/05/31 06:16:45;;;;;;;9.65;6.68;;;;;;;19.56;81.46;95029.03;5075506;28;20762;-79
2023/05/31 06:19:10;;;;;;;12.30;7.50;;;;;;;19.67;80.16;95030.69;5076023;28;20174;-79
2023/05/31 06:21:35;;;;;;;14.52;6.90;;;;;;;19.72;80.05;95033.34;5075398;28;20175;-80
2023/05/31 06:24:02;;;;;;;12.25;7.10;;;;;;;19.86;79.84;95041.69;5075565;28;20618;-80
2023/05/31 06:26:27;;;;;;;11.25;6.53;;;;;;;19.92;78.57;95038.75;5075539;28;20162;-80
2023/05/31 06:28:53;;;;;;;11.52;6.88;;;;;;;20.02;79.19;95031.81;5075454;28;20178;-80
2023/05/31 06:31:18;;;;;;;15.05;7.60;;;;;;;20.08;77.41;95034.22;5075480;28;20511;-80
2023/05/31 06:33:44;;;;;;;13.30;7.80;;;;;;;20.18;77.61;95033.44;5061667;28;20171;-79
2023/05/31 06:36:09;;;;;;;14.88;8.38;;;;;;;20.28;76.68;95036.13;5054934;28;20203;-79
2023/05/31 06:38:35;;;;;;;11.77;7.15;;;;;;;20.28;75.90;95031.59;5054465;28;20516;-80
2023/05/31 06:41:00;;;;;;;10.52;6.15;;;;;;;20.41;76.07;95037.53;5055644;28;20194;-80
2023/05/31 06:43:29;;;;;;;10.65;7.80;;;;;;;20.54;76.31;95034.28;5055117;28;20669;-80
2023/05/31 06:45:54;;;;;;;11.63;7.43;;;;;;;20.66;75.49;95038.31;5055775;28;20164;-80
2023/05/31 06:48:20;;;;;;;14.68;6.97;;;;;;;20.68;74.25;95028.13;5055538;28;20175;-80
2023/05/31 06:50:45;;;;;;;17.50;7.88;;;;;;;20.61;73.89;95010.75;5063058;28;20637;-80
2023/05/31 06:53:12;;;;;;;10.68;6.35;;;;;;;20.76;74.53;95031.34;5066511;28;20171;-79
2023/05/31 06:55:38;;;;;;;11.95;6.28;;;;;;;20.84;75.53;95034.28;5068499;28;20195;-79
2023/05/31 06:58:03;;;;;;;12.90;5.90;;;;;;;20.61;74.41;94992.81;5071797;28;20189;-79
2023/05/31 07:00:29;;;;;;;13.65;6.88;;;;;;;20.84;76.56;95038.81;5063487;28;20182;-80
2023/05/31 07:02:54;;;;;;;11.95;6.22;;;;;;;20.74;74.44;95033.47;5063167;28;20703;-80
2023/05/31 07:05:20;;;;;;;9.70;5.85;;;;;;;20.72;74.26;95033.75;5063202;28;20666;-81
2023/05/31 07:07:45;;;;;;;12.70;6.57;;;;;;;20.77;73.89;95041.75;5063507;28;20171;-79
2023/05/31 07:10:11;;;;;;;12.70;6.70;;;;;;;20.75;73.84;95041.25;5064150;28;20639;-80
2023/05/31 07:12:36;;;;;;;10.68;5.93;;;;;;;20.81;73.20;95036.69;5070215;28;20659;-77
2023/05/31 07:15:02;;;;;;;8.40;5.35;;;;;;;20.82;73.83;95028.38;5062704;28;20226;-80
2023/05/31 07:17:29;;;;;;;8.57;5.90;;;;;;;20.92;74.54;95004.28;5065440;28;20219;-82
2023/05/31 07:19:54;;;;;;;10.93;5.30;;;;;;;21.06;72.40;95036.63;5066335;28;20209;-81
2023/05/31 07:22:22;;;;;;;14.23;6.43;;;;;;;20.79;72.99;95009.38;5063467;28;20194;-82
2023/05/31 07:24:47;;;;;;;9.13;5.05;;;;;;;20.91;71.98;95044.69;5063022;28;20163;-80
2023/05/31 07:27:13;;;;;;;7.90;5.75;;;;;;;20.77;73.21;95036.41;5071059;28;20170;-81
2023/05/31 07:29:38;;;;;;;9.13;5.95;;;;;;;20.82;72.88;95046.31;5063398;28;20192;-81
2023/05/31 07:32:04;;;;;;;14.13;5.53;;;;;;;20.43;74.79;95016.63;5062996;28;20171;-81
2023/05/31 07:34:30;;;;;;;11.02;5.30;;;;;;;20.51;74.42;95029.47;5063551;28;20175;-80
2023/05/31 07:36:55;;;;;;;9.77;5.20;;;;;;;20.50;76.78;95031.34;5065633;28;20197;-82
2023/05/31 07:39:21;;;;;;;7.88;5.57;;;;;;;20.61;76.33;95034.81;5057441;28;20233;-81
2023/05/31 07:41:47;;;;;;;7.65;5.47;;;;;;;20.52;74.46;95009.69;5073892;28;20174;-82
2023/05/31 07:44:12;;;;;;;10.80;5.40;;;;;;;20.61;73.90;95034.81;5074599;28;20216;-82
2023/05/31 07:46:38;;;;;;;12.10;4.97;;;;;;;20.46;73.33;95014.25;5074051;28;20158;-85
2023/05/31 07:49:03;;;;;;;9.02;5.13;;;;;;;20.56;73.31;95030.28;5074550;28;20167;-81
2023/05/31 07:51:30;;;;;;;9.57;5.10;;;;;;;20.57;74.58;95031.91;5067121;28;20175;-81
2023/05/31 07:53:56;;;;;;;8.13;5.30;;;;;;;20.75;74.64;95029.72;5064003;28;20175;-81
2023/05/31 07:56:22;;;;;;;13.30;5.40;;;;;;;20.47;73.17;94981.06;5063817;28;20202;-82
2023/05/31 07:58:47;;;;;;;6.80;4.55;;;;;;;20.65;71.12;95009.13;5064899;28;20225;-80
2023/05/31 08:01:13;;;;;;;10.32;4.35;;;;;;;20.56;72.39;95005.41;5061577;28;20179;-82
2023/05/31 08:03:40;;;;;;;7.65;4.43;;;;;;;20.70;72.52;95030.53;5061911;28;20175;-83
2023/05/31 08:06:05;;;;;;;8.40;3.90;;;;;;;20.63;73.18;95035.34;5055598;28;20179;-83
2023/05/31 08:08:32;;;;;;;6.82;4.43;;;;;;;20.68;72.85;95028.13;5065407;28;20178;-82
2023/05/31 08:10:58;;;;;;;7.80;4.28;;;;;;;20.70;73.08;95014.47;5064602;28;20227;-83
2023/05/31 08:13:24;;;;;;;6.20;4.32;;;;;;;20.66;72.00;94994.69;5057183;28;20175;-84
2023/05/31 08:15:50;;;;;;;10.93;5.13;;;;;;;20.84;71.82;95034.28;5072592;28;20190;-83
2023/05/31 08:18:15;;;;;;;7.57;4.93;;;;;;;20.79;72.23;95006.69;5071828;28;20222;-83
2023/05/31 08:20:41;;;;;;;9.43;5.05;;;;;;;20.96;72.80;95023.25;5073338;28;20645;-82
2023/05/31 08:23:07;;;;;;;7.75;4.70;;;;;;;21.06;71.90;95020.56;5073765;28;20167;-82
2023/05/31 08:25:32;;;;;;;9.20;5.40;;;;;;;21.24;73.22;95022.69;5072740;28;20633;-82
2023/05/31 08:27:58;;;;;;;9.52;6.03;;;;;;;21.39;71.36;95017.25;5073310;28;20155;-82
2023/05/31 08:30:23;;;;;;;7.90;4.90;;;;;;;21.41;71.62;95007.09;5073174;28;20174;-82
2023/05/31 08:32:48;;;;;;;8.32;5.00;;;;;;;21.48;70.30;95005.97;5073057;28;20167;-82
2023/05/31 08:35:14;;;;;;;7.65;5.20;;;;;;;21.73;70.25;95027.28;5072903;28;20182;-82
2023/05/31 08:37:40;;;;;;;8.80;4.95;;;;;;;21.78;70.81;95001.28;5065852;28;20703;-82
2023/05/31 08:40:06;;;;;;;11.00;5.78;;;;;;;22.01;70.89;95015.91;5062816;28;20175;-84
2023/05/31 08:42:39;;;;;;;9.48;5.15;;;;;;;21.90;68.93;94966.06;5067718;28;20224;-83
2023/05/31 08:45:06;;;;;;;9.13;5.15;;;;;;;22.22;68.89;94994.31;5061018;28;20198;-84
2023/05/31 08:47:57;;;;;;;9.05;5.72;;;;;;;22.50;66.99;95007.75;5056940;28;20185;-84
2023/05/31 08:50:26;;;;;;;8.43;5.63;;;;;;;22.31;69.54;94988.06;5051319;28;20205;-85
2023/05/31 08:52:52;;;;;;;8.48;4.93;;;;;;;22.46;69.07;95006.72;5058312;28;20184;-87
2023/05/31 08:55:18;;;;;;;7.35;5.18;;;;;;;22.52;68.89;94997.53;5062562;28;20198;-86
2023/05/31 08:57:46;;;;;;;11.60;5.53;;;;;;;22.47;66.59;94996.78;5065387;28;20646;-84
2023/05/31 09:00:12;;;;;;;7.47;5.32;;;;;;;22.35;67.28;94993.66;5072602;28;20257;-82
2023/05/31 09:02:38;;;;;;;8.95;4.60;;;;;;;22.27;67.39;94983.53;5072804;28;20184;-80
2023/05/31 09:05:05;;;;;;;8.82;5.30;;;;;;;22.26;67.27;94974.69;5072473;28;20170;-82
2023/05/31 09:07:31;;;;;;;8.63;4.82;;;;;;;22.17;67.83;94957.59;5072977;28;20244;-84
2023/05/31 09:09:56;;;;;;;13.18;6.22;;;;;;;22.29;67.80;94967.97;5068437;28;20658;-83
2023/05/31 09:12:22;;;;;;;12.05;4.38;;;;;;;22.23;65.47;94942.28;5062237;28;20240;-86
2023/05/31 09:14:48;;;;;;;7.13;4.18;;;;;;;22.56;64.80;94968.25;5065113;28;20238;-83
2023/05/31 09:17:13;;;;;;;38.10;5.50;;;;;;;22.64;65.96;94973.00;5064561;28;20229;-82
2023/05/31 09:19:53;;;;;;;8.38;3.85;;;;;;;22.75;63.63;94974.53;5061499;28;20605;-80
2023/05/31 09:22:20;;;;;;;5.50;3.88;;;;;;;22.83;64.41;94976.59;5062908;28;20178;-81
2023/05/31 09:24:59;;;;;;;6.43;4.03;;;;;;;22.91;64.57;94964.44;5068893;28;20174;-81
2023/05/31 09:27:26;;;;;;;10.98;4.53;;;;;;;22.98;63.82;94958.72;5049338;28;20183;-81
2023/05/31 09:29:53;;;;;;;7.53;4.10;;;;;;;22.80;64.11;94953.00;5048267;28;20338;-81
2023/05/31 09:32:19;;;;;;;8.50;4.13;;;;;;;22.68;64.23;94949.88;5048437;28;21063;-81
2023/05/31 09:34:46;;;;;;;10.73;4.65;;;;;;;22.85;63.69;94955.63;5064868;28;20646;-82
2023/05/31 09:37:21;;;;;;;4.72;3.20;;;;;;;22.98;61.27;94964.91;5067912;28;20174;-81
2023/05/31 09:39:57;;;;;;;5.97;3.95;;;;;;;23.09;62.98;94960.22;5067504;28;20227;-81
2023/05/31 09:42:26;;;;;;;12.35;3.95;;;;;;;23.26;64.53;94963.25;5061292;28;20179;-82
2023/05/31 09:44:52;;;;;;;6.70;4.22;;;;;;;23.33;64.56;94950.25;5060282;28;20171;-80
2023/05/31 09:47:26;;;;;;;6.95;4.07;;;;;;;23.16;62.55;94947.25;5060419;28;20178;-81
2023/05/31 09:49:55;;;;;;;5.97;3.90;;;;;;;22.61;62.13;94938.69;5058960;28;20179;-82
2023/05/31 09:52:37;;;;;;;6.85;3.85;;;;;;;22.35;63.19;94923.91;5062686;28;20181;-83
2023/05/31 09:55:06;;;;;;;10.77;4.70;;;;;;;22.09;65.16;94893.81;5051994;28;20222;-84
2023/05/31 09:57:40;;;;;;;10.73;3.80;;;;;;;22.35;63.97;94938.13;5059731;28;20174;-86
2023/05/31 10:00:20;;;;;;;4.97;4.10;;;;;;;22.46;64.19;94947.69;5072018;28;20618;-83
2023/05/31 10:02:48;;;;;;;6.32;3.58;;;;;;;22.39;64.00;94927.63;5072238;28;20980;-81
2023/05/31 10:05:15;;;;;;;5.00;3.55;;;;;;;22.43;62.71;94915.25;5071836;28;20174;-86
2023/05/31 10:07:42;;;;;;;5.32;3.40;;;;;;;22.78;61.29;94944.44;5070839;28;20197;-85
2023/05/31 10:10:09;;;;;;;18.67;4.13;;;;;;;22.97;62.23;94946.38;5070624;28;20174;-83
2023/05/31 10:12:57;;;;;;;4.95;3.40;;;;;;;22.84;62.85;94943.28;5070448;28;20189;-83
2023/05/31 10:15:25;;;;;;;4.82;3.70;;;;;;;22.56;62.40;94944.09;5071878;28;20250;-82
2023/05/31 10:18:13;;;;;;;5.63;3.60;;;;;;;22.38;62.88;94940.25;5063079;28;20280;-87
2023/05/31 10:20:43;;;;;;;5.07;3.53;;;;;;;22.02;62.86;94920.16;5062403;28;20198;-84
2023/05/31 10:23:19;;;;;;;3.85;3.22;;;;;;;22.03;63.39;94945.91;5060133;28;20183;-83
2023/05/31 10:25:56;;;;;;;5.80;3.53;;;;;;;22.00;63.49;94933.84;5051517;28;20178;-83
2023/05/31 10:28:27;;;;;;;6.55;3.90;;;;;;;21.75;64.94;94894.59;5051142;28;20660;-82
2023/05/31 10:31:03;;;;;;;5.32;3.88;;;;;;;21.90;64.85;94908.97;5055675;28;20545;-83
2023/05/31 10:33:30;;;;;;;6.22;3.70;;;;;;;22.05;65.59;94916.94;5050522;28;20167;-83
2023/05/31 10:35:58;;;;;;;4.72;3.60;;;;;;;22.05;65.45;94882.88;5050398;28;20191;-83
2023/05/31 10:38:30;;;;;;;5.93;3.47;;;;;;;21.95;63.90;94882.13;5054787;28;20379;-82
2023/05/31 10:41:02;;;;;;;7.43;4.28;;;;;;;22.10;64.89;94890.06;5052506;28;20175;-82
2023/05/31 10:43:28;;;;;;;6.90;4.72;;;;;;;22.35;64.98;94921.22;5049383;28;20203;-82
2023/05/31 10:46:09;;;;;;;5.75;4.22;;;;;;;22.47;66.04;94925.13;5050851;28;20213;-82
2023/05/31 10:48:55;;;;;;;8.32;4.03;;;;;;;22.38;63.48;94918.78;5055728;28;20175;-83
2023/05/31 10:51:40;;;;;;;5.15;3.20;;;;;;;22.18;64.27;94909.03;5052319;28;20167;-83
2023/05/31 10:54:06;;;;;;;5.60;3.33;;;;;;;22.03;60.84;94903.81;5051589;28;20638;-83
2023/05/31 10:56:32;;;;;;;3.95;2.53;;;;;;;22.17;63.29;94920.84;5054877;28;20184;-83
2023/05/31 10:58:58;;;;;;;3.28;2.63;;;;;;;22.04;62.95;94928.75;5050304;28;20828;-83
2023/05/31 11:01:28;;;;;;;4.55;2.65;;;;;;;21.92;58.80;94934.44;5053147;28;20167;-83
2023/05/31 11:03:57;;;;;;;3.72;2.55;;;;;;;21.60;59.32;94893.91;5051148;28;20168;-82
2023/05/31 11:06:33;;;;;;;4.38;2.30;;;;;;;21.93;62.10;94929.88;5055380;28;20297;-83
2023/05/31 11:09:15;;;;;;;6.85;2.58;;;;;;;21.72;63.13;94905.88;5052827;28;20258;-82
2023/05/31 11:11:40;;;;;;;3.08;2.78;;;;;;;21.84;66.03;94919.75;5057845;28;20182;-82
2023/05/31 11:14:07;;;;;;;4.43;3.00;;;;;;;21.78;67.38;94886.03;5057145;28;20651;-82
2023/05/31 11:16:53;;;;;;;6.70;2.88;;;;;;;22.07;66.16;94896.78;5052984;28;20183;-82
2023/05/31 11:19:37;;;;;;;3.47;2.67;;;;;;;22.17;66.16;94907.44;5047544;28;20205;-82
2023/05/31 11:22:18;;;;;;;7.95;3.47;;;;;;;22.19;65.21;94910.63;5050563;28;20167;-82
2023/05/31 11:24:55;;;;;;;6.90;2.83;;;;;;;22.26;65.58;94909.50;5051553;28;20174;-83
2023/05/31 11:27:22;;;;;;;4.40;3.30;;;;;;;22.24;66.87;94892.88;5051290;28;20194;-83
2023/05/31 11:29:51;;;;;;;4.75;3.33;;;;;;;22.34;66.83;94890.91;5053139;28;20337;-83
2023/05/31 11:32:39;;;;;;;14.73;4.03;;;;;;;22.45;65.33;94888.94;5055541;28;20198;-83
2023/05/31 11:35:08;;;;;;;5.85;3.53;;;;;;;22.56;64.49;94890.44;5053534;28;20183;-82
2023/05/31 11:37:38;;;;;;;7.40;4.07;;;;;;;22.65;64.90;94886.03;5053654;28;20190;-82